sensor_id;sensor_type;location;lat;lon;timestamp;pressure;altitude;pressure_sealevel;temperature;humidity
77723;BME280;67811;42.656;23.394;2023-04-16T00:00:59;94560.53;;;9.08;45.39
77723;BME280;67811;42.656;23.394;2023-04-16T00:03:25;94562.31;;;9.01;45.72
77723;BME280;67811;42.656;23.394;2023-04-16T00:05:50;94566.06;;;8.92;45.65
77723;BME280;67811;42.656;23.394;2023-04-16T00:08:15;94558.44;;;8.82;45.31
77723;BME280;67811;42.656;23.394;2023-04-16T00:10:41;94563.19;;;8.72;45.71
77723;BME280;67811;42.656;23.394;2023-04-16T00:13:06;94569.41;;;8.64;45.68
77723;BME280;67811;42.656;23.394;2023-04-16T00:15:31;94567.69;;;8.57;45.47
77723;BME280;67811;42.656;23.394;2023-04-16T00:17:57;94571.72;;;8.53;45.58
77723;BME280;67811;42.656;23.394;2023-04-16T00:20:22;94566.16;;;8.48;45.65
77723;BME280;67811;42.656;23.394;2023-04-16T00:22:47;94567.34;;;8.45;45.41
77723;BME280;67811;42.656;23.394;2023-04-16T00:25:13;94569.56;;;8.41;45.61
77723;BME280;67811;42.656;23.394;2023-04-16T00:27:38;94561.97;;;8.38;45.82
77723;BME280;67811;42.656;23.394;2023-04-16T00:30:04;94562.69;;;8.32;45.69
77723;BME280;67811;42.656;23.394;2023-04-16T00:32:30;94568.72;;;8.26;45.74
77723;BME280;67811;42.656;23.394;2023-04-16T00:34:55;94570.44;;;8.19;45.54
77723;BME280;67811;42.656;23.394;2023-04-16T00:37:20;94572.81;;;8.14;45.81
77723;BME280;67811;42.656;23.394;2023-04-16T00:39:46;94566.25;;;8.10;45.65
77723;BME280;67811;42.656;23.394;2023-04-16T00:42:11;94560.06;;;8.03;45.61
77723;BME280;67811;42.656;23.394;2023-04-16T00:44:36;94567.53;;;7.99;45.60
77723;BME280;67811;42.656;23.394;2023-04-16T00:47:02;94558.50;;;7.93;45.94
77723;BME280;67811;42.656;23.394;2023-04-16T00:49:28;94558.25;;;7.88;45.75
77723;BME280;67811;42.656;23.394;2023-04-16T00:51:54;94557.13;;;7.83;45.56
77723;BME280;67811;42.656;23.394;2023-04-16T00:54:20;94556.88;;;7.78;45.42
77723;BME280;67811;42.656;23.394;2023-04-16T00:56:45;94561.66;;;7.74;45.97
77723;BME280;67811;42.656;23.394;2023-04-16T00:59:11;94556.09;;;7.69;45.93
77723;BME280;67811;42.656;23.394;2023-04-16T01:01:36;94555.47;;;7.67;45.68
77723;BME280;67811;42.656;23.394;2023-04-16T01:04:02;94553.22;;;7.64;46.14
77723;BME280;67811;42.656;23.394;2023-04-16T01:06:27;94556.75;;;7.56;46.18
77723;BME280;67811;42.656;23.394;2023-04-16T01:08:52;94551.19;;;7.51;46.01
77723;BME280;67811;42.656;23.394;2023-04-16T01:11:18;94555.28;;;7.54;45.83
77723;BME280;67811;42.656;23.394;2023-04-16T01:13:43;94557.41;;;7.58;46.07
77723;BME280;67811;42.656;23.394;2023-04-16T01:16:09;94549.28;;;7.60;45.79
77723;BME280;67811;42.656;23.394;2023-04-16T01:18:35;94558.03;;;7.60;45.74
77723;BME280;67811;42.656;23.394;2023-04-16T01:21:01;94563.13;;;7.62;45.81
77723;BME280;67811;42.656;23.394;2023-04-16T01:23:26;94556.19;;;7.61;45.96
77723;BME280;67811;42.656;23.394;2023-04-16T01:25:52;94555.72;;;7.57;46.01
77723;BME280;67811;42.656;23.394;2023-04-16T01:28:17;94560.38;;;7.55;45.87
77723;BME280;67811;42.656;23.394;2023-04-16T01:30:43;94553.81;;;7.51;46.17
77723;BME280;67811;42.656;23.394;2023-04-16T01:33:10;94558.66;;;7.48;46.22
77723;BME280;67811;42.656;23.394;2023-04-16T01:35:35;94555.34;;;7.46;45.96
77723;BME280;67811;42.656;23.394;2023-04-16T01:38:01;94551.25;;;7.43;45.65
77723;BME280;67811;42.656;23.394;2023-04-16T01:40:27;94553.44;;;7.39;45.75
77723;BME280;67811;42.656;23.394;2023-04-16T01:42:52;94545.72;;;7.38;45.79
77723;BME280;67811;42.656;23.394;2023-04-16T01:45:17;94546.06;;;7.35;46.00
77723;BME280;67811;42.656;23.394;2023-04-16T01:47:43;94549.22;;;7.30;45.78
77723;BME280;67811;42.656;23.394;2023-04-16T01:50:08;94547.13;;;7.26;45.80
77723;BME280;67811;42.656;23.394;2023-04-16T01:52:34;94547.13;;;7.26;46.08
77723;BME280;67811;42.656;23.394;2023-04-16T01:54:59;94539.22;;;7.26;45.78
77723;BME280;67811;42.656;23.394;2023-04-16T01:57:24;94545.47;;;7.25;45.83
77723;BME280;67811;42.656;23.394;2023-04-16T01:59:50;94541.06;;;7.25;45.93
77723;BME280;67811;42.656;23.394;2023-04-16T02:02:15;94535.78;;;7.25;45.83
77723;BME280;67811;42.656;23.394;2023-04-16T02:04:44;94544.31;;;7.27;46.01
77723;BME280;67811;42.656;23.394;2023-04-16T02:07:10;94535.78;;;7.25;46.00
77723;BME280;67811;42.656;23.394;2023-04-16T02:09:37;94539.03;;;7.27;45.44
77723;BME280;67811;42.656;23.394;2023-04-16T02:12:04;94538.53;;;7.32;45.51
77723;BME280;67811;42.656;23.394;2023-04-16T02:14:33;94536.97;;;7.37;45.64
77723;BME280;67811;42.656;23.394;2023-04-16T02:16:59;94536.59;;;7.40;45.77
77723;BME280;67811;42.656;23.394;2023-04-16T02:19:25;94540.88;;;7.42;45.52
77723;BME280;67811;42.656;23.394;2023-04-16T02:21:50;94533.16;;;7.40;45.31
77723;BME280;67811;42.656;23.394;2023-04-16T02:24:16;94533.34;;;7.38;45.09
77723;BME280;67811;42.656;23.394;2023-04-16T02:26:41;94529.22;;;7.36;45.74
77723;BME280;67811;42.656;23.394;2023-04-16T02:29:06;94532.88;;;7.35;45.45
77723;BME280;67811;42.656;23.394;2023-04-16T02:31:32;94540.78;;;7.35;45.70
77723;BME280;67811;42.656;23.394;2023-04-16T02:33:57;94536.31;;;7.35;45.36
77723;BME280;67811;42.656;23.394;2023-04-16T02:36:23;94529.06;;;7.37;45.60
77723;BME280;67811;42.656;23.394;2023-04-16T02:38:48;94535.16;;;7.38;45.54
77723;BME280;67811;42.656;23.394;2023-04-16T02:41:13;94530.72;;;7.38;45.79
77723;BME280;67811;42.656;23.394;2023-04-16T02:43:39;94533.34;;;7.38;45.08
77723;BME280;67811;42.656;23.394;2023-04-16T02:46:04;94528.06;;;7.38;45.58
77723;BME280;67811;42.656;23.394;2023-04-16T02:48:29;94522.19;;;7.36;45.49
77723;BME280;67811;42.656;23.394;2023-04-16T02:50:55;94520.88;;;7.32;45.51
77723;BME280;67811;42.656;23.394;2023-04-16T02:53:20;94519.59;;;7.28;45.53
77723;BME280;67811;42.656;23.394;2023-04-16T02:55:52;94525.25;;;7.25;45.41
77723;BME280;67811;42.656;23.394;2023-04-16T02:58:19;94518.31;;;7.24;45.49
77723;BME280;67811;42.656;23.394;2023-04-16T03:00:44;94516.69;;;7.23;45.76
77723;BME280;67811;42.656;23.394;2023-04-16T03:03:10;94520.94;;;7.24;45.34
77723;BME280;67811;42.656;23.394;2023-04-16T03:05:35;94515.66;;;7.24;45.54
77723;BME280;67811;42.656;23.394;2023-04-16T03:08:02;94515.03;;;7.22;45.36
77723;BME280;67811;42.656;23.394;2023-04-16T03:10:27;94520.31;;;7.22;45.62
77723;BME280;67811;42.656;23.394;2023-04-16T03:12:52;94521.31;;;7.21;45.49
77723;BME280;67811;42.656;23.394;2023-04-16T03:15:17;94520.50;;;7.21;45.52
77723;BME280;67811;42.656;23.394;2023-04-16T03:17:44;94522.31;;;7.20;45.87
77723;BME280;67811;42.656;23.394;2023-04-16T03:20:09;94518.03;;;7.19;45.72
77723;BME280;67811;42.656;23.394;2023-04-16T03:22:35;94521.31;;;7.21;45.17
77723;BME280;67811;42.656;23.394;2023-04-16T03:25:00;94530.84;;;7.22;45.56
77723;BME280;67811;42.656;23.394;2023-04-16T03:27:25;94521.75;;;7.25;45.43
77723;BME280;67811;42.656;23.394;2023-04-16T03:29:51;94521.59;;;7.26;45.48
77723;BME280;67811;42.656;23.394;2023-04-16T03:32:16;94521.22;;;7.29;45.65
77723;BME280;67811;42.656;23.394;2023-04-16T03:34:41;94519.06;;;7.33;45.48
77723;BME280;67811;42.656;23.394;2023-04-16T03:37:07;94519.69;;;7.35;45.37
77723;BME280;67811;42.656;23.394;2023-04-16T03:39:33;94526.78;;;7.34;45.68
77723;BME280;67811;42.656;23.394;2023-04-16T03:41:58;94523.72;;;7.31;45.46
77723;BME280;67811;42.656;23.394;2023-04-16T03:44:23;94522.41;;;7.27;45.48
77723;BME280;67811;42.656;23.394;2023-04-16T03:46:48;94522.41;;;7.27;45.44
77723;BME280;67811;42.656;23.394;2023-04-16T03:49:14;94531.13;;;7.27;45.32
77723;BME280;67811;42.656;23.394;2023-04-16T03:51:39;94531.97;;;7.28;45.24
77723;BME280;67811;42.656;23.394;2023-04-16T03:54:04;94528.50;;;7.27;45.56
77723;BME280;67811;42.656;23.394;2023-04-16T03:56:30;94533.78;;;7.27;45.24
77723;BME280;67811;42.656;23.394;2023-04-16T03:58:55;94534.59;;;7.28;45.18
77723;BME280;67811;42.656;23.394;2023-04-16T04:01:20;94534.59;;;7.28;45.24
77723;BME280;67811;42.656;23.394;2023-04-16T04:03:45;94536.41;;;7.27;45.25
77723;BME280;67811;42.656;23.394;2023-04-16T04:06:11;94541.50;;;7.29;45.59
77723;BME280;67811;42.656;23.394;2023-04-16T04:08:36;94536.69;;;7.32;45.61
77723;BME280;67811;42.656;23.394;2023-04-16T04:11:01;94547.69;;;7.36;45.75
77723;BME280;67811;42.656;23.394;2023-04-16T04:13:27;94546.34;;;7.40;45.60
77723;BME280;67811;42.656;23.394;2023-04-16T04:15:52;94553.91;;;7.43;45.32
77723;BME280;67811;42.656;23.394;2023-04-16T04:18:17;94550.75;;;7.48;45.51
77723;BME280;67811;42.656;23.394;2023-04-16T04:20:43;94556.44;;;7.51;45.68
77723;BME280;67811;42.656;23.394;2023-04-16T04:23:08;94556.91;;;7.55;45.56
77723;BME280;67811;42.656;23.394;2023-04-16T04:25:34;94559.84;;;7.60;45.60
77723;BME280;67811;42.656;23.394;2023-04-16T04:27:59;94559.47;;;7.63;45.35
77723;BME280;67811;42.656;23.394;2023-04-16T04:30:24;94562.56;;;7.66;45.42
77723;BME280;67811;42.656;23.394;2023-04-16T04:32:50;94563.88;;;7.71;45.45
77723;BME280;67811;42.656;23.394;2023-04-16T04:35:15;94564.50;;;7.73;45.39
77723;BME280;67811;42.656;23.394;2023-04-16T04:37:40;94571.88;;;7.77;45.69
77723;BME280;67811;42.656;23.394;2023-04-16T04:40:06;94570.53;;;7.81;45.34
77723;BME280;67811;42.656;23.394;2023-04-16T04:42:32;94570.97;;;7.85;45.49
77723;BME280;67811;42.656;23.394;2023-04-16T04:44:57;94573.06;;;7.89;45.33
77723;BME280;67811;42.656;23.394;2023-04-16T04:47:22;94576.16;;;7.93;45.39
77723;BME280;67811;42.656;23.394;2023-04-16T04:49:48;94579.09;;;7.98;45.34
77723;BME280;67811;42.656;23.394;2023-04-16T04:52:13;94572.59;;;8.01;45.33
77723;BME280;67811;42.656;23.394;2023-04-16T04:54:38;94581.81;;;8.05;45.59
77723;BME280;67811;42.656;23.394;2023-04-16T04:57:03;94578.81;;;8.08;45.24
77723;BME280;67811;42.656;23.394;2023-04-16T04:59:29;94578.44;;;8.11;45.23
77723;BME280;67811;42.656;23.394;2023-04-16T05:01:54;94576.44;;;8.13;45.22
77723;BME280;67811;42.656;23.394;2023-04-16T05:04:19;94569.97;;;8.15;45.50
77723;BME280;67811;42.656;23.394;2023-04-16T05:06:45;94573.09;;;8.19;45.23
77723;BME280;67811;42.656;23.394;2023-04-16T05:09:10;94572.50;;;8.24;45.11
77723;BME280;67811;42.656;23.394;2023-04-16T05:11:39;94562.88;;;8.31;45.14
77723;BME280;67811;42.656;23.394;2023-04-16T05:14:04;94566.44;;;8.38;45.33
77723;BME280;67811;42.656;23.394;2023-04-16T05:16:30;94573.44;;;8.45;45.29
77723;BME280;67811;42.656;23.394;2023-04-16T05:18:55;94565.78;;;8.51;45.23
77723;BME280;67811;42.656;23.394;2023-04-16T05:21:21;94565.88;;;8.57;45.48
77723;BME280;67811;42.656;23.394;2023-04-16T05:23:46;94561.28;;;8.66;45.66
77723;BME280;67811;42.656;23.394;2023-04-16T05:26:12;94566.47;;;8.74;45.48
77723;BME280;67811;42.656;23.394;2023-04-16T05:28:37;94564.34;;;8.84;45.00
77723;BME280;67811;42.656;23.394;2023-04-16T05:31:02;94573.78;;;8.93;45.33
77723;BME280;67811;42.656;23.394;2023-04-16T05:33:27;94565.78;;;9.02;45.05
77723;BME280;67811;42.656;23.394;2023-04-16T05:35:53;94567.91;;;9.13;45.41
77723;BME280;67811;42.656;23.394;2023-04-16T05:38:18;94568.22;;;9.24;44.99
77723;BME280;67811;42.656;23.394;2023-04-16T05:40:43;94558.16;;;9.35;45.47
77723;BME280;67811;42.656;23.394;2023-04-16T05:43:09;94556.38;;;9.42;45.06
77723;BME280;67811;42.656;23.394;2023-04-16T05:45:34;94560.69;;;9.49;45.18
77723;BME280;67811;42.656;23.394;2023-04-16T05:47:59;94559.31;;;9.54;45.29
77723;BME280;67811;42.656;23.394;2023-04-16T05:50:24;94559.56;;;9.59;45.38
77723;BME280;67811;42.656;23.394;2023-04-16T05:52:50;94566.72;;;9.65;44.93
77723;BME280;67811;42.656;23.394;2023-04-16T05:55:15;94567.78;;;9.70;45.32
77723;BME280;67811;42.656;23.394;2023-04-16T05:57:40;94564.19;;;9.78;45.20
77723;BME280;67811;42.656;23.394;2023-04-16T06:00:06;94563.03;;;9.87;45.30
77723;BME280;67811;42.656;23.394;2023-04-16T06:02:31;94560.50;;;10.00;45.21
77723;BME280;67811;42.656;23.394;2023-04-16T06:04:57;94552.25;;;10.17;45.14
77723;BME280;67811;42.656;23.394;2023-04-16T06:07:22;94555.81;;;10.37;45.11
77723;BME280;67811;42.656;23.394;2023-04-16T06:09:47;94553.06;;;10.59;44.94
77723;BME280;67811;42.656;23.394;2023-04-16T06:12:12;94556.81;;;10.77;45.30
77723;BME280;67811;42.656;23.394;2023-04-16T06:14:38;94551.78;;;10.96;45.04
77723;BME280;67811;42.656;23.394;2023-04-16T06:17:03;94548.34;;;11.15;44.78
77723;BME280;67811;42.656;23.394;2023-04-16T06:19:28;94551.25;;;11.33;44.96
77723;BME280;67811;42.656;23.394;2023-04-16T06:21:54;94554.91;;;11.52;44.93
77723;BME280;67811;42.656;23.394;2023-04-16T06:24:19;94553.69;;;11.68;44.79
77723;BME280;67811;42.656;23.394;2023-04-16T06:26:44;94552.50;;;11.84;44.62
77723;BME280;67811;42.656;23.394;2023-04-16T06:29:09;94560.84;;;12.01;44.74
77723;BME280;67811;42.656;23.394;2023-04-16T06:31:35;94560.22;;;12.19;44.69
77723;BME280;67811;42.656;23.394;2023-04-16T06:34:00;94554.44;;;12.35;44.67
77723;BME280;67811;42.656;23.394;2023-04-16T06:36:25;94551.97;;;12.53;44.52
77723;BME280;67811;42.656;23.394;2023-04-16T06:38:51;94544.94;;;12.72;44.65
77723;BME280;67811;42.656;23.394;2023-04-16T06:41:16;94545.66;;;12.92;44.71
77723;BME280;67811;42.656;23.394;2023-04-16T06:43:41;94550.66;;;13.14;44.68
77723;BME280;67811;42.656;23.394;2023-04-16T06:46:07;94549.34;;;13.36;44.41
77723;BME280;67811;42.656;23.394;2023-04-16T06:48:33;94552.81;;;13.62;44.38
77723;BME280;67811;42.656;23.394;2023-04-16T06:50:58;94554.47;;;13.88;44.37
77723;BME280;67811;42.656;23.394;2023-04-16T06:53:24;94551.78;;;14.13;44.15
77723;BME280;67811;42.656;23.394;2023-04-16T06:55:49;94549.72;;;14.33;44.09
77723;BME280;67811;42.656;23.394;2023-04-16T06:58:14;94546.66;;;14.55;43.78
77723;BME280;67811;42.656;23.394;2023-04-16T07:00:40;94545.09;;;14.65;44.08
77723;BME280;67811;42.656;23.394;2023-04-16T07:03:05;94539.97;;;14.82;43.99
77723;BME280;67811;42.656;23.394;2023-04-16T07:05:30;94542.63;;;15.00;43.96
77723;BME280;67811;42.656;23.394;2023-04-16T07:07:55;94537.81;;;15.21;43.75
77723;BME280;67811;42.656;23.394;2023-04-16T07:10:21;94536.97;;;15.39;43.77
77723;BME280;67811;42.656;23.394;2023-04-16T07:12:46;94541.19;;;15.58;43.83
77723;BME280;67811;42.656;23.394;2023-04-16T07:15:11;94545.66;;;15.76;43.39
77723;BME280;67811;42.656;23.394;2023-04-16T07:17:37;94546.66;;;15.93;43.40
77723;BME280;67811;42.656;23.394;2023-04-16T07:20:02;94554.19;;;16.08;43.77
77723;BME280;67811;42.656;23.394;2023-04-16T07:22:27;94546.66;;;16.17;43.43
77723;BME280;67811;42.656;23.394;2023-04-16T07:24:53;94546.88;;;16.27;43.36
77723;BME280;67811;42.656;23.394;2023-04-16T07:27:18;94551.16;;;16.40;43.61
77723;BME280;67811;42.656;23.394;2023-04-16T07:29:43;94538.94;;;16.55;43.46
77723;BME280;67811;42.656;23.394;2023-04-16T07:32:09;94550.34;;;16.74;43.48
77723;BME280;67811;42.656;23.394;2023-04-16T07:34:34;94547.03;;;16.96;43.25
77723;BME280;67811;42.656;23.394;2023-04-16T07:36:59;94541.59;;;17.19;43.26
77723;BME280;67811;42.656;23.394;2023-04-16T07:39:24;94538.03;;;17.42;43.15
77723;BME280;67811;42.656;23.394;2023-04-16T07:41:50;94536.47;;;17.63;42.96
77723;BME280;67811;42.656;23.394;2023-04-16T07:44:15;94534.19;;;17.83;42.94
77723;BME280;67811;42.656;23.394;2023-04-16T07:46:41;94538.50;;;18.01;42.98
77723;BME280;67811;42.656;23.394;2023-04-16T07:49:06;94535.16;;;18.11;42.91
77723;BME280;67811;42.656;23.394;2023-04-16T07:51:31;94534.44;;;18.15;43.00
77723;BME280;67811;42.656;23.394;2023-04-16T07:53:56;94531.28;;;18.19;42.85
77723;BME280;67811;42.656;23.394;2023-04-16T07:56:22;94536.38;;;18.20;42.90
77723;BME280;67811;42.656;23.394;2023-04-16T07:58:47;94531.56;;;18.22;43.12
77723;BME280;67811;42.656;23.394;2023-04-16T08:01:12;94530.84;;;18.27;43.06
77723;BME280;67811;42.656;23.394;2023-04-16T08:03:38;94527.81;;;18.40;42.93
77723;BME280;67811;42.656;23.394;2023-04-16T08:06:03;94532.16;;;18.63;43.02
77723;BME280;67811;42.656;23.394;2023-04-16T08:08:28;94526.91;;;18.90;42.67
77723;BME280;67811;42.656;23.394;2023-04-16T08:10:54;94519.94;;;19.16;42.59
77723;BME280;67811;42.656;23.394;2023-04-16T08:13:19;94524.22;;;19.39;42.38
77723;BME280;67811;42.656;23.394;2023-04-16T08:15:44;94517.78;;;19.62;42.42
77723;BME280;67811;42.656;23.394;2023-04-16T08:18:10;94516.91;;;19.88;42.31
77723;BME280;67811;42.656;23.394;2023-04-16T08:20:35;94511.97;;;20.07;42.14
77723;BME280;67811;42.656;23.394;2023-04-16T08:23:00;94516.84;;;20.15;42.03
77723;BME280;67811;42.656;23.394;2023-04-16T08:25:25;94510.72;;;20.25;42.23
77723;BME280;67811;42.656;23.394;2023-04-16T08:27:51;94511.72;;;20.46;42.26
77723;BME280;67811;42.656;23.394;2023-04-16T08:30:16;94502.47;;;20.79;41.90
77723;BME280;67811;42.656;23.394;2023-04-16T08:32:42;94503.16;;;21.17;41.80
77723;BME280;67811;42.656;23.394;2023-04-16T08:35:08;94503.50;;;21.46;41.54
77723;BME280;67811;42.656;23.394;2023-04-16T08:37:33;94497.63;;;21.79;41.37
77723;BME280;67811;42.656;23.394;2023-04-16T08:39:59;94500.09;;;22.22;41.20
77723;BME280;67811;42.656;23.394;2023-04-16T08:42:39;94493.50;;;22.69;40.90
77723;BME280;67811;42.656;23.394;2023-04-16T08:45:07;94487.41;;;23.12;40.60
77723;BME280;67811;42.656;23.394;2023-04-16T08:47:37;94482.09;;;23.52;40.35
77723;BME280;67811;42.656;23.394;2023-04-16T08:50:03;94485.03;;;23.95;40.24
77723;BME280;67811;42.656;23.394;2023-04-16T08:52:30;94491.25;;;24.29;39.92
77723;BME280;67811;42.656;23.394;2023-04-16T08:55:05;94488.00;;;24.61;39.77
77723;BME280;67811;42.656;23.394;2023-04-16T08:57:42;94484.06;;;24.96;39.59
77723;BME280;67811;42.656;23.394;2023-04-16T09:00:10;94484.72;;;25.31;39.33
77723;BME280;67811;42.656;23.394;2023-04-16T09:02:35;94476.25;;;25.57;39.23
77723;BME280;67811;42.656;23.394;2023-04-16T09:05:03;94473.63;;;25.89;38.99
77723;BME280;67811;42.656;23.394;2023-04-16T09:07:30;94471.09;;;26.25;38.66
77723;BME280;67811;42.656;23.394;2023-04-16T09:09:58;94461.47;;;26.33;38.55
77723;BME280;67811;42.656;23.394;2023-04-16T09:12:24;94470.03;;;26.26;38.61
77723;BME280;67811;42.656;23.394;2023-04-16T09:14:49;94460.59;;;26.38;38.75
77723;BME280;67811;42.656;23.394;2023-04-16T09:17:15;94469.09;;;26.64;38.52
77723;BME280;67811;42.656;23.394;2023-04-16T09:19:41;94461.53;;;27.02;37.85
77723;BME280;67811;42.656;23.394;2023-04-16T09:22:07;94465.38;;;27.42;37.79
77723;BME280;67811;42.656;23.394;2023-04-16T09:24:33;94461.88;;;28.00;37.15
77723;BME280;67811;42.656;23.394;2023-04-16T09:26:58;94464.84;;;28.66;36.38
77723;BME280;67811;42.656;23.394;2023-04-16T09:29:35;94466.53;;;29.24;36.00
77723;BME280;67811;42.656;23.394;2023-04-16T09:32:04;94457.66;;;29.67;35.48
77723;BME280;67811;42.656;23.394;2023-04-16T09:34:34;94466.16;;;29.91;35.54
77723;BME280;67811;42.656;23.394;2023-04-16T09:37:16;94460.06;;;30.21;35.56
77723;BME280;67811;42.656;23.394;2023-04-16T09:39:43;94454.22;;;30.48;35.59
77723;BME280;67811;42.656;23.394;2023-04-16T09:42:09;94463.78;;;30.89;35.14
77723;BME280;67811;42.656;23.394;2023-04-16T09:44:35;94455.41;;;31.15;35.07
77723;BME280;67811;42.656;23.394;2023-04-16T09:47:05;94446.09;;;31.45;34.98
77723;BME280;67811;42.656;23.394;2023-04-16T09:49:41;94446.47;;;31.65;35.63
77723;BME280;67811;42.656;23.394;2023-04-16T09:52:16;94441.34;;;31.75;35.08
77723;BME280;67811;42.656;23.394;2023-04-16T09:54:52;94439.03;;;31.65;35.54
77723;BME280;67811;42.656;23.394;2023-04-16T09:57:20;94439.75;;;31.74;35.56
77723;BME280;67811;42.656;23.394;2023-04-16T09:59:45;94432.97;;;31.81;35.79
77723;BME280;67811;42.656;23.394;2023-04-16T10:02:11;94430.75;;;31.74;36.01
77723;BME280;67811;42.656;23.394;2023-04-16T10:04:47;94428.47;;;31.97;36.01
77723;BME280;67811;42.656;23.394;2023-04-16T10:07:12;94429.69;;;32.41;35.44
77723;BME280;67811;42.656;23.394;2023-04-16T10:09:38;94433.53;;;32.61;35.37
77723;BME280;67811;42.656;23.394;2023-04-16T10:12:04;94433.88;;;32.72;35.46
77723;BME280;67811;42.656;23.394;2023-04-16T10:14:29;94431.91;;;32.60;35.55
77723;BME280;67811;42.656;23.394;2023-04-16T10:16:55;94424.44;;;32.36;35.98
77723;BME280;67811;42.656;23.394;2023-04-16T10:19:21;94423.69;;;31.94;36.35
77723;BME280;67811;42.656;23.394;2023-04-16T10:21:47;94426.69;;;31.59;36.82
77723;BME280;67811;42.656;23.394;2023-04-16T10:24:12;94415.03;;;31.41;36.80
77723;BME280;67811;42.656;23.394;2023-04-16T10:26:40;94413.50;;;31.53;36.77
77723;BME280;67811;42.656;23.394;2023-04-16T10:29:06;94413.78;;;31.81;36.75
77723;BME280;67811;42.656;23.394;2023-04-16T10:31:32;94414.66;;;31.93;36.67
77723;BME280;67811;42.656;23.394;2023-04-16T10:33:58;94410.03;;;32.06;36.10
77723;BME280;67811;42.656;23.394;2023-04-16T10:36:24;94408.19;;;32.31;36.42
77723;BME280;67811;42.656;23.394;2023-04-16T10:38:50;94410.44;;;32.62;35.96
77723;BME280;67811;42.656;23.394;2023-04-16T10:41:18;94409.31;;;32.88;35.99
77723;BME280;67811;42.656;23.394;2023-04-16T10:43:45;94405.44;;;33.25;35.28
77723;BME280;67811;42.656;23.394;2023-04-16T10:46:23;94400.84;;;33.94;35.16
77723;BME280;67811;42.656;23.394;2023-04-16T10:48:52;94398.03;;;34.63;34.24
77723;BME280;67811;42.656;23.394;2023-04-16T10:51:31;94398.53;;;35.16;33.82
77723;BME280;67811;42.656;23.394;2023-04-16T10:56:35;94396.50;;;35.28;34.49
77723;BME280;67811;42.656;23.394;2023-04-16T10:59:05;94398.09;;;35.45;34.52
77723;BME280;67811;42.656;23.394;2023-04-16T11:01:35;94400.28;;;35.75;34.15
77723;BME280;67811;42.656;23.394;2023-04-16T11:09:57;94390.75;;;35.88;34.46
77723;BME280;67811;42.656;23.394;2023-04-16T11:12:44;94380.19;;;35.04;35.38
77723;BME280;67811;42.656;23.394;2023-04-16T11:15:14;94377.53;;;33.76;35.94
77723;BME280;67811;42.656;23.394;2023-04-16T11:17:50;94388.84;;;32.61;37.59
77723;BME280;67811;42.656;23.394;2023-04-16T11:20:18;94383.72;;;31.72;38.38
77723;BME280;67811;42.656;23.394;2023-04-16T11:22:44;94381.94;;;31.05;38.81
77723;BME280;67811;42.656;23.394;2023-04-16T11:25:10;94388.59;;;30.48;39.30
77723;BME280;67811;42.656;23.394;2023-04-16T11:27:35;94383.88;;;29.93;39.61
77723;BME280;67811;42.656;23.394;2023-04-16T11:30:03;94371.81;;;30.03;39.46
77723;BME280;67811;42.656;23.394;2023-04-16T11:32:33;94374.78;;;30.44;38.86
77723;BME280;67811;42.656;23.394;2023-04-16T11:35:00;94362.31;;;30.64;38.38
77723;BME280;67811;42.656;23.394;2023-04-16T11:37:32;94359.25;;;30.66;37.85
77723;BME280;67811;42.656;23.394;2023-04-16T11:39:58;94351.91;;;30.49;38.44
77723;BME280;67811;42.656;23.394;2023-04-16T11:42:23;94353.97;;;30.05;38.51
77723;BME280;67811;42.656;23.394;2023-04-16T11:44:56;94346.66;;;29.62;39.02
77723;BME280;67811;42.656;23.394;2023-04-16T11:47:23;94353.84;;;29.50;39.42
77723;BME280;67811;42.656;23.394;2023-04-16T11:49:48;94346.31;;;29.81;39.26
77723;BME280;67811;42.656;23.394;2023-04-16T11:52:31;94337.25;;;30.07;38.69
77723;BME280;67811;42.656;23.394;2023-04-16T11:54:57;94338.50;;;30.27;38.35
77723;BME280;67811;42.656;23.394;2023-04-16T11:57:30;94327.97;;;30.46;38.17
77723;BME280;67811;42.656;23.394;2023-04-16T11:59:57;94336.47;;;30.53;38.03
77723;BME280;67811;42.656;23.394;2023-04-16T12:02:48;94329.50;;;30.26;38.13
77723;BME280;67811;42.656;23.394;2023-04-16T12:05:30;94322.34;;;29.96;38.31
77723;BME280;67811;42.656;23.394;2023-04-16T12:07:57;94322.22;;;29.75;38.31
77723;BME280;67811;42.656;23.394;2023-04-16T12:10:23;94320.78;;;29.60;38.83
77723;BME280;67811;42.656;23.394;2023-04-16T12:12:48;94313.09;;;29.62;38.78
77723;BME280;67811;42.656;23.394;2023-04-16T12:15:13;94316.28;;;29.73;38.61
77723;BME280;67811;42.656;23.394;2023-04-16T12:17:39;94304.88;;;29.79;38.27
77723;BME280;67811;42.656;23.394;2023-04-16T12:20:11;94302.66;;;29.64;38.25
77723;BME280;67811;42.656;23.394;2023-04-16T12:22:39;94295.41;;;29.42;38.26
77723;BME280;67811;42.656;23.394;2023-04-16T12:25:11;94303.94;;;29.23;38.91
77723;BME280;67811;42.656;23.394;2023-04-16T12:27:41;94298.31;;;29.02;38.78
77723;BME280;67811;42.656;23.394;2023-04-16T12:30:07;94296.91;;;28.56;39.24
77723;BME280;67811;42.656;23.394;2023-04-16T12:32:32;94301.78;;;27.89;40.62
77723;BME280;67811;42.656;23.394;2023-04-16T12:34:58;94296.16;;;27.18;41.04
77723;BME280;67811;42.656;23.394;2023-04-16T12:37:23;94293.25;;;26.64;41.68
77723;BME280;67811;42.656;23.394;2023-04-16T12:39:48;94297.38;;;26.07;41.73
77723;BME280;67811;42.656;23.394;2023-04-16T12:42:14;94289.91;;;25.38;42.66
77723;BME280;67811;42.656;23.394;2023-04-16T12:44:39;94288.81;;;24.83;43.20
77723;BME280;67811;42.656;23.394;2023-04-16T12:47:04;94295.91;;;24.41;43.88
77723;BME280;67811;42.656;23.394;2023-04-16T12:49:30;94301.75;;;24.00;44.11
77723;BME280;67811;42.656;23.394;2023-04-16T12:51:55;94294.16;;;23.49;44.39
77723;BME280;67811;42.656;23.394;2023-04-16T12:54:20;94292.81;;;23.12;44.83
77723;BME280;67811;42.656;23.394;2023-04-16T12:56:46;94288.69;;;22.91;44.93
77723;BME280;67811;42.656;23.394;2023-04-16T12:59:11;94289.50;;;22.86;44.75